createdAt,value
2017-07-22T00:01:00.127Z,19.66
2017-07-22T00:01:45.538Z,19.59
2017-07-22T00:02:45.566Z,19.69
2017-07-22T00:03:45.582Z,19.63
2017-07-22T00:05:45.654Z,19.62
2017-07-22T00:06:45.679Z,19.59
2017-07-22T00:08:00.309Z,19.58
2017-07-22T00:09:45.440Z,19.51
2017-07-22T00:10:45.780Z,19.63
2017-07-22T00:11:45.818Z,19.58
2017-07-22T00:12:45.840Z,19.55
2017-07-22T00:13:45.857Z,19.55
2017-07-22T00:14:45.883Z,19.58
2017-07-22T00:15:45.907Z,19.59
2017-07-22T00:16:45.916Z,19.46
2017-07-22T00:18:00.558Z,19.44
2017-07-22T00:18:45.974Z,19.51
2017-07-22T00:19:46.005Z,19.46
2017-07-22T00:20:46.028Z,19.4
2017-07-22T00:21:46.067Z,19.36
2017-07-22T00:22:45.784Z,19.41
2017-07-22T00:24:00.706Z,19.4
2017-07-22T00:24:46.132Z,19.46
2017-07-22T00:25:46.161Z,19.41
2017-07-22T00:27:46.210Z,19.44
2017-07-22T00:30:00.865Z,19.31
2017-07-22T00:30:46.287Z,19.33
2017-07-22T00:31:46.321Z,19.36
2017-07-22T00:32:46.338Z,19.37
2017-07-22T00:33:46.358Z,19.29
2017-07-22T00:34:46.371Z,19.19
2017-07-22T00:35:46.421Z,19.21
2017-07-22T00:36:46.442Z,19.21
2017-07-22T00:37:46.457Z,19.18
2017-07-22T00:38:46.477Z,19.18
2017-07-22T00:40:01.106Z,19.14
2017-07-22T00:40:46.528Z,19.21
2017-07-22T00:41:46.553Z,19.21
2017-07-22T00:42:46.588Z,19.14
2017-07-22T00:44:01.202Z,19.18
2017-07-22T00:44:46.654Z,19.19
2017-07-22T00:45:46.659Z,19.14
2017-07-22T00:46:46.696Z,19.08
2017-07-22T00:47:46.393Z,19.04
2017-07-22T00:48:46.757Z,19.02
2017-07-22T00:49:46.817Z,19.04
2017-07-22T00:50:46.789Z,19.04
2017-07-22T00:51:46.815Z,19.06
2017-07-22T00:52:46.842Z,18.99
2017-07-22T00:53:46.869Z,18.95
2017-07-22T00:55:46.929Z,19.02
2017-07-22T00:56:46.929Z,19.02
2017-07-22T00:57:46.977Z,19
2017-07-22T00:58:46.993Z,19.04
2017-07-22T00:59:47.032Z,19.04
2017-07-22T01:00:47.050Z,19.07
2017-07-22T01:01:47.061Z,18.99
2017-07-22T01:02:47.075Z,18.92
2017-07-22T01:03:47.097Z,18.92
2017-07-22T01:05:47.157Z,18.92
2017-07-22T01:06:47.208Z,18.9
2017-07-22T01:07:47.210Z,18.85
2017-07-22T01:08:47.250Z,18.82
2017-07-22T01:09:47.261Z,18.82
2017-07-22T01:10:47.302Z,18.85
2017-07-22T01:11:47.316Z,18.81
2017-07-22T01:12:47.031Z,18.76
2017-07-22T01:13:47.358Z,18.76
2017-07-22T01:14:47.407Z,18.72
2017-07-22T01:15:47.415Z,18.72
2017-07-22T01:16:47.464Z,18.72
2017-07-22T01:17:47.464Z,18.66
2017-07-22T01:19:02.101Z,18.67
2017-07-22T01:19:47.510Z,18.82
2017-07-22T01:20:47.543Z,18.73
2017-07-22T01:21:47.258Z,18.7
2017-07-22T01:23:47.632Z,18.75
2017-07-22T01:24:47.646Z,18.72
2017-07-22T01:25:47.684Z,18.72
2017-07-22T01:27:02.286Z,18.82
2017-07-22T01:28:47.752Z,18.7
2017-07-22T01:29:47.776Z,18.82
2017-07-22T01:30:47.806Z,18.8
2017-07-22T01:32:02.411Z,18.67
2017-07-22T01:32:47.850Z,18.72
2017-07-22T01:33:47.874Z,18.73
2017-07-22T01:34:47.889Z,18.72
2017-07-22T01:35:47.922Z,18.67
2017-07-22T01:37:02.549Z,18.55
2017-07-22T01:37:47.658Z,18.63
2017-07-22T01:38:48.003Z,18.6
2017-07-22T01:39:48.016Z,18.62
2017-07-22T01:40:48.071Z,18.62
2017-07-22T01:41:48.070Z,18.65
2017-07-22T01:43:02.704Z,18.62
2017-07-22T01:43:48.123Z,18.51
2017-07-22T01:44:48.136Z,18.52
2017-07-22T01:45:48.175Z,18.65
2017-07-22T01:46:48.207Z,18.58
2017-07-22T01:47:48.224Z,18.5
2017-07-22T01:48:48.246Z,18.58
2017-07-22T01:49:48.279Z,18.58
2017-07-22T01:50:47.984Z,18.6
2017-07-22T01:51:48.316Z,18.51
2017-07-22T01:52:48.046Z,18.5
2017-07-22T01:53:48.386Z,18.47
2017-07-22T01:54:48.411Z,18.5
2017-07-22T01:55:48.456Z,18.32
2017-07-22T01:56:48.443Z,18.47
2017-07-22T01:57:48.463Z,18.37
2017-07-22T01:59:03.113Z,18.39
2017-07-22T01:59:48.522Z,18.39
2017-07-22T02:00:48.560Z,18.41
2017-07-22T02:01:48.579Z,18.41
2017-07-22T02:02:48.595Z,18.39
2017-07-22T02:03:48.622Z,18.42
2017-07-22T02:04:48.645Z,18.41
2017-07-22T02:05:48.667Z,18.45
2017-07-22T02:06:48.707Z,18.36
2017-07-22T02:07:48.713Z,18.41
2017-07-22T02:09:03.349Z,18.45
2017-07-22T02:09:48.766Z,18.37
2017-07-22T02:10:48.813Z,18.36
2017-07-22T02:11:48.823Z,18.42
2017-07-22T02:12:48.854Z,18.41
2017-07-22T02:13:48.874Z,18.33
2017-07-22T02:15:03.487Z,18.3
2017-07-22T02:15:48.931Z,18.29
2017-07-22T02:17:03.535Z,18.33
2017-07-22T02:18:48.993Z,18.23
2017-07-22T02:19:49.025Z,18.18
2017-07-22T02:21:03.635Z,18.2
2017-07-22T02:22:03.678Z,18.2
2017-07-22T02:22:48.796Z,18.26
2017-07-22T02:23:49.122Z,18.23
2017-07-22T02:24:49.120Z,18.14
2017-07-22T02:25:48.854Z,18.17
2017-07-22T02:26:49.200Z,18.12
2017-07-22T02:28:49.252Z,18.12
2017-07-22T02:30:03.874Z,18.14
2017-07-22T02:30:49.299Z,18.29
2017-07-22T02:31:49.320Z,18.32
2017-07-22T02:32:49.347Z,18.23
2017-07-22T02:33:49.372Z,18.27
2017-07-22T02:35:04.002Z,18.11
2017-07-22T02:35:49.420Z,18.17
2017-07-22T02:36:49.505Z,18.11
2017-07-22T02:37:49.455Z,18.15
2017-07-22T02:38:49.504Z,18.08
2017-07-22T02:40:04.119Z,18.12
2017-07-22T02:41:04.146Z,18.1
2017-07-22T02:41:49.569Z,18.12
2017-07-22T02:42:49.277Z,18.12
2017-07-22T02:43:49.621Z,18.23
2017-07-22T02:44:49.642Z,18.23
2017-07-22T02:45:49.676Z,18.14
2017-07-22T02:46:49.705Z,18.11
2017-07-22T02:47:49.730Z,18.15
2017-07-22T02:48:49.737Z,18.11
2017-07-22T02:49:49.762Z,18.1
2017-07-22T02:50:49.801Z,18.1
2017-07-22T02:52:04.432Z,18.07
2017-07-22T02:52:49.854Z,18.07
2017-07-22T02:53:49.864Z,18.1
2017-07-22T02:54:49.896Z,18.08
2017-07-22T02:55:49.903Z,18.02
2017-07-22T02:56:49.956Z,18.03
2017-07-22T02:57:49.964Z,18.07
2017-07-22T02:58:49.689Z,18.12
2017-07-22T02:59:49.999Z,18.12
2017-07-22T03:00:50.042Z,17.99
2017-07-22T03:02:04.665Z,18.02
2017-07-22T03:02:50.098Z,17.96
2017-07-22T03:03:50.110Z,18.03
2017-07-22T03:04:50.146Z,18
2017-07-22T03:05:50.154Z,17.99
2017-07-22T03:06:50.205Z,17.96
2017-07-22T03:07:50.204Z,18.05
2017-07-22T03:08:50.242Z,17.97
2017-07-22T03:09:49.952Z,17.97
2017-07-22T03:10:50.296Z,17.97
2017-07-22T03:11:50.308Z,18.03
2017-07-22T03:12:50.343Z,18.03
2017-07-22T03:13:50.370Z,18.02
2017-07-22T03:14:50.068Z,17.99
2017-07-22T03:15:50.430Z,17.92
2017-07-22T03:16:50.122Z,18
2017-07-22T03:18:05.068Z,18.02
2017-07-22T03:18:50.483Z,17.92
2017-07-22T03:19:50.509Z,18.03
2017-07-22T03:20:50.231Z,18.07
2017-07-22T03:22:05.170Z,18.08
2017-07-22T03:22:50.288Z,18.08
2017-07-22T03:23:50.297Z,18.07
2017-07-22T03:24:50.341Z,18.1
2017-07-22T03:25:50.664Z,18.12
2017-07-22T03:26:50.679Z,18.14
2017-07-22T03:28:05.313Z,18.12
2017-07-22T03:28:50.780Z,18.08
2017-07-22T03:29:50.753Z,18.11
2017-07-22T03:30:50.798Z,18.1
2017-07-22T03:31:50.827Z,18.14
2017-07-22T03:32:50.842Z,18.11
2017-07-22T03:34:05.465Z,18.12
2017-07-22T03:34:50.887Z,18.14
2017-07-22T03:35:50.910Z,18.14
2017-07-22T03:36:50.622Z,18.14
2017-07-22T03:37:50.957Z,18.11
2017-07-22T03:38:50.991Z,18.1
2017-07-22T03:39:51.020Z,18.14
2017-07-22T03:40:51.028Z,18.17
2017-07-22T03:41:51.051Z,18.1
2017-07-22T03:42:51.074Z,18.1
2017-07-22T03:43:51.168Z,18.12
2017-07-22T03:44:51.132Z,18.25
2017-07-22T03:45:51.162Z,18.29
2017-07-22T03:47:51.211Z,18.27
2017-07-22T03:48:51.227Z,18.3
2017-07-22T03:50:05.856Z,18.27
2017-07-22T03:50:51.280Z,18.35
2017-07-22T03:51:51.304Z,18.3
2017-07-22T03:52:51.337Z,18.32
2017-07-22T03:53:51.032Z,18.36
2017-07-22T03:55:51.395Z,18.29
2017-07-22T03:56:51.434Z,18.41
2017-07-22T03:57:51.453Z,18.37
2017-07-22T03:58:51.485Z,18.39
2017-07-22T04:00:06.102Z,18.39
2017-07-22T04:01:06.126Z,18.39
2017-07-22T04:01:51.565Z,18.39
2017-07-22T04:05:06.233Z,18.54
2017-07-22T04:05:51.348Z,18.55
2017-07-22T04:06:51.689Z,18.6
2017-07-22T04:07:51.396Z,18.54
2017-07-22T04:08:51.726Z,18.54
2017-07-22T04:09:51.808Z,18.58
2017-07-22T04:10:51.775Z,18.58
2017-07-22T04:12:51.834Z,18.69
2017-07-22T04:13:51.860Z,18.81
2017-07-22T04:15:06.482Z,18.76
2017-07-22T04:15:51.892Z,18.82
2017-07-22T04:16:51.930Z,18.85
2017-07-22T04:17:51.947Z,18.84
2017-07-22T04:18:51.672Z,18.92
2017-07-22T04:19:52.008Z,18.82
2017-07-22T04:20:52.038Z,18.85
2017-07-22T04:21:52.049Z,18.91
2017-07-22T04:23:52.082Z,19.02
2017-07-22T04:24:52.135Z,19.1
2017-07-22T04:25:51.857Z,19.16
2017-07-22T04:27:06.770Z,19.14
2017-07-22T04:28:06.809Z,19.25
2017-07-22T04:28:52.220Z,19.36
2017-07-22T04:29:52.260Z,19.37
2017-07-22T04:30:51.950Z,19.37
2017-07-22T04:32:06.602Z,19.47
2017-07-22T04:32:52.336Z,19.47
2017-07-22T04:34:52.387Z,19.58
2017-07-22T04:35:52.403Z,19.66
2017-07-22T04:37:07.039Z,19.58
2017-07-22T04:37:52.441Z,19.56
2017-07-22T04:39:52.518Z,19.61
2017-07-22T04:40:52.524Z,19.68
2017-07-22T04:41:52.561Z,19.73
2017-07-22T04:42:52.596Z,19.84
2017-07-22T04:44:52.627Z,19.95
2017-07-22T04:45:52.359Z,20.01
2017-07-22T04:46:52.693Z,20.13
2017-07-22T04:47:52.722Z,20.24
2017-07-22T04:49:52.819Z,20.59
2017-07-22T04:50:52.787Z,20.92
2017-07-22T04:51:52.822Z,21.4
2017-07-22T04:53:07.430Z,22.17
2017-07-22T04:53:52.865Z,22.45
2017-07-22T04:54:52.890Z,22.9
2017-07-22T04:55:52.616Z,23.22
2017-07-22T04:56:52.953Z,23.75
2017-07-22T04:57:52.974Z,23.94
2017-07-22T04:58:52.997Z,24.57
2017-07-22T04:59:53.012Z,24.93
2017-07-22T05:00:53.070Z,25.08
2017-07-22T05:01:52.761Z,25.38
2017-07-22T05:03:07.712Z,25.61
2017-07-22T05:03:53.165Z,25.54
2017-07-22T05:04:52.869Z,25.87
2017-07-22T05:06:53.225Z,25.73
2017-07-22T05:07:53.332Z,25.87
2017-07-22T05:09:07.887Z,26.01
2017-07-22T05:09:53.007Z,26.06
2017-07-22T05:10:53.340Z,25.88
2017-07-22T05:11:53.390Z,25.73
2017-07-22T05:14:53.470Z,25.82
2017-07-22T05:15:53.174Z,25.77
2017-07-22T05:16:53.515Z,25.91
2017-07-22T05:17:53.556Z,25.99
2017-07-22T05:18:53.594Z,26.17
2017-07-22T05:19:53.620Z,25.77
2017-07-22T05:20:53.653Z,25.75
2017-07-22T05:21:53.680Z,25.6
2017-07-22T05:23:53.413Z,25.39
2017-07-22T05:25:08.370Z,25.7
2017-07-22T05:25:53.481Z,26.07
2017-07-22T05:26:53.848Z,26.32
2017-07-22T05:27:53.859Z,26.26
2017-07-22T05:28:53.896Z,25.79
2017-07-22T05:29:53.620Z,25.98
2017-07-22T05:31:08.542Z,26.23
2017-07-22T05:31:53.677Z,26.3
2017-07-22T05:32:53.997Z,26.17
2017-07-22T05:34:08.649Z,26.65
2017-07-22T05:34:54.083Z,26.94
2017-07-22T05:35:53.796Z,27.55
2017-07-22T05:36:54.120Z,27.7
2017-07-22T05:38:08.769Z,28.15
2017-07-22T05:38:54.209Z,28.49
2017-07-22T05:40:08.521Z,28.77
2017-07-22T05:40:54.278Z,28.89
2017-07-22T05:42:54.331Z,28.98
2017-07-22T05:43:54.361Z,28.71
2017-07-22T05:44:54.401Z,28.44
2017-07-22T05:46:09.015Z,28.24
2017-07-22T05:47:09.068Z,27.81
2017-07-22T05:48:09.099Z,27.75
2017-07-22T05:48:54.523Z,27.79
2017-07-22T05:50:09.162Z,27.84
2017-07-22T05:51:09.189Z,27.69
2017-07-22T05:52:09.224Z,27.54
2017-07-22T05:52:54.673Z,27.34
2017-07-22T05:53:54.701Z,27.31
2017-07-22T05:54:54.717Z,27.65
2017-07-22T05:55:54.751Z,27.51
2017-07-22T05:56:54.795Z,27.7
2017-07-22T05:57:54.803Z,27.57
2017-07-22T05:59:54.878Z,27.44
2017-07-22T06:02:09.533Z,27.02
2017-07-22T06:03:09.584Z,26.69
2017-07-22T06:03:55.016Z,26.72
2017-07-22T06:04:55.033Z,26.57
2017-07-22T06:05:55.075Z,26.43
2017-07-22T06:06:55.103Z,26.29
2017-07-22T06:07:55.151Z,26.37
2017-07-22T06:08:54.863Z,26.29
2017-07-22T06:09:55.216Z,26.36
2017-07-22T06:10:54.915Z,26.44
2017-07-22T06:12:09.874Z,26.69
2017-07-22T06:13:09.889Z,27.07
2017-07-22T06:13:55.340Z,27.27
2017-07-22T06:14:55.057Z,27.4
2017-07-22T06:16:09.996Z,27.31
2017-07-22T06:17:55.449Z,28.61
2017-07-22T06:18:55.481Z,29.33
2017-07-22T06:20:10.125Z,29.45
2017-07-22T06:21:10.157Z,29.73
2017-07-22T06:21:55.579Z,29.46
2017-07-22T06:22:55.619Z,29.46
2017-07-22T06:24:55.679Z,29.74
2017-07-22T06:25:55.740Z,29.52
2017-07-22T06:26:55.759Z,29.64
2017-07-22T06:28:55.826Z,29.8
2017-07-22T06:29:55.858Z,30.17
2017-07-22T06:30:55.890Z,30.47
2017-07-22T06:31:55.927Z,30.55
2017-07-22T06:32:55.960Z,30.77
2017-07-22T06:33:55.983Z,30.92
2017-07-22T06:34:56.028Z,30.43
2017-07-22T06:35:56.062Z,29.86
2017-07-22T06:36:56.099Z,29.53
2017-07-22T06:37:56.126Z,29.76
2017-07-22T06:38:56.162Z,30.13
2017-07-22T06:40:56.221Z,30.16
2017-07-22T06:41:56.260Z,30.02
2017-07-22T06:42:56.312Z,30.08
2017-07-22T06:44:10.949Z,29.87
2017-07-22T06:44:56.382Z,29.7
2017-07-22T06:45:56.394Z,29.49
2017-07-22T06:46:56.130Z,29.26
2017-07-22T06:47:56.465Z,29.15
2017-07-22T06:49:56.552Z,29.12
2017-07-22T06:50:56.585Z,29.05
2017-07-22T06:51:56.615Z,28.66
2017-07-22T06:52:56.700Z,28.46
2017-07-22T06:54:11.280Z,28.78
2017-07-22T06:54:56.702Z,28.93
2017-07-22T06:56:56.785Z,29.48
2017-07-22T06:57:56.801Z,29.37
2017-07-22T06:58:56.850Z,29.51
2017-07-22T07:00:11.480Z,29.65
2017-07-22T07:00:57.216Z,29.86
2017-07-22T07:01:56.948Z,30.16
2017-07-22T07:02:56.983Z,29.85
2017-07-22T07:03:57.028Z,30.23
2017-07-22T07:04:57.056Z,30.37
2017-07-22T07:05:57.084Z,30.57
2017-07-22T07:06:57.123Z,30.55
2017-07-22T07:07:57.151Z,30.46
2017-07-22T07:08:57.204Z,30.73
2017-07-22T07:09:57.209Z,30.45
2017-07-22T07:11:11.855Z,30.29
2017-07-22T07:11:57.286Z,30.26
2017-07-22T07:13:57.363Z,30.77
2017-07-22T07:15:11.993Z,31.34
2017-07-22T07:16:12.043Z,31.51
2017-07-22T07:16:57.464Z,31.75
2017-07-22T07:17:57.184Z,31.81
2017-07-22T07:18:57.528Z,31.86
2017-07-22T07:19:57.546Z,31.7
2017-07-22T07:20:57.606Z,31.66
2017-07-22T07:21:57.637Z,31.93
2017-07-22T07:23:57.702Z,32.1
2017-07-22T07:24:57.435Z,31.95
2017-07-22T07:25:57.770Z,32.48
2017-07-22T07:26:57.803Z,32.74
2017-07-22T07:27:57.845Z,32.85
2017-07-22T07:28:57.884Z,33.12
2017-07-22T07:29:57.928Z,33.19
2017-07-22T07:30:57.962Z,33.15
2017-07-22T07:31:57.995Z,33.04
2017-07-22T07:32:57.718Z,33.54
2017-07-22T07:33:58.064Z,33.31
2017-07-22T07:34:58.093Z,33.32
2017-07-22T07:35:58.138Z,33.31
2017-07-22T07:36:58.163Z,33.72
2017-07-22T07:37:58.225Z,33.51
2017-07-22T07:38:58.245Z,33
2017-07-22T07:39:58.291Z,32.92
2017-07-22T07:40:57.988Z,32.69
2017-07-22T07:41:58.384Z,32.66
2017-07-22T07:42:58.378Z,32.72
2017-07-22T07:43:58.427Z,32.82
2017-07-22T07:44:58.456Z,32.74
2017-07-22T07:45:58.496Z,32.26
2017-07-22T07:47:13.128Z,31.63
2017-07-22T07:48:58.606Z,31.57
2017-07-22T07:49:58.648Z,31.7
2017-07-22T07:51:58.412Z,32
2017-07-22T07:52:58.435Z,32.08
2017-07-22T07:53:58.763Z,32
2017-07-22T07:55:13.426Z,32.29
2017-07-22T07:55:58.848Z,32.04
2017-07-22T07:56:58.896Z,31.29
2017-07-22T07:57:58.919Z,31.41
2017-07-22T07:58:58.657Z,31.17
2017-07-22T08:01:59.063Z,29.64
2017-07-22T08:03:13.706Z,30.02
2017-07-22T08:04:59.164Z,30.1
2017-07-22T08:05:59.205Z,29.78
2017-07-22T08:07:59.282Z,29.65
2017-07-22T08:08:59.318Z,29.31
2017-07-22T08:09:59.347Z,29.27
2017-07-22T08:10:59.357Z,28.98
2017-07-22T08:11:59.105Z,29.09
2017-07-22T08:12:59.439Z,28.78
2017-07-22T08:13:59.485Z,28.74
2017-07-22T08:14:59.523Z,28.78
2017-07-22T08:15:59.231Z,28.95
2017-07-22T08:16:59.586Z,29.04
2017-07-22T08:17:59.596Z,29.26
2017-07-22T08:19:14.248Z,29.14
2017-07-22T08:19:59.692Z,29.24
2017-07-22T08:20:59.717Z,29.23
2017-07-22T08:21:59.796Z,29.3
2017-07-22T08:23:14.365Z,29.61
2017-07-22T08:23:59.809Z,30.01
2017-07-22T08:25:59.868Z,31.54
2017-07-22T08:26:59.909Z,32
2017-07-22T08:27:59.947Z,31.72
2017-07-22T08:29:59.678Z,32.21
2017-07-22T08:31:00.038Z,32.35
2017-07-22T08:32:00.066Z,32.11
2017-07-22T08:33:00.103Z,32.23
2017-07-22T08:34:00.139Z,32.07
2017-07-22T08:35:14.770Z,31.75
2017-07-22T08:36:00.209Z,31.85
2017-07-22T08:37:00.233Z,31.76
2017-07-22T08:38:00.279Z,31.25
2017-07-22T08:39:00.314Z,31.01
2017-07-22T08:40:00.321Z,30.65
2017-07-22T08:41:00.066Z,30.27
2017-07-22T08:42:00.398Z,30.11
2017-07-22T08:43:00.442Z,29.79
2017-07-22T08:44:00.159Z,29.53
2017-07-22T08:45:00.212Z,29.61
2017-07-22T08:46:00.535Z,29.73
2017-07-22T08:47:00.571Z,30.35
2017-07-22T08:48:00.648Z,31.04
2017-07-22T08:49:00.638Z,31.34
2017-07-22T08:50:15.273Z,31.65
2017-07-22T08:51:00.703Z,31.78
2017-07-22T08:52:00.741Z,31.92
2017-07-22T08:54:00.813Z,31.16
2017-07-22T08:55:00.835Z,30.92
2017-07-22T08:56:00.859Z,30.88
2017-07-22T08:57:00.910Z,31.09
2017-07-22T08:58:00.937Z,30.76
2017-07-22T08:59:00.658Z,30.26
2017-07-22T09:00:15.608Z,29.73
2017-07-22T09:01:00.722Z,29.49
2017-07-22T09:02:01.079Z,29.28
2017-07-22T09:03:00.792Z,29.12
2017-07-22T09:04:01.132Z,28.83
2017-07-22T09:05:15.782Z,28.73
2017-07-22T09:06:01.188Z,28.85
2017-07-22T09:08:15.857Z,28.68
2017-07-22T09:09:01.317Z,28.55
2017-07-22T09:10:01.327Z,28.8
2017-07-22T09:11:01.369Z,29.06
2017-07-22T09:12:01.394Z,29.09
2017-07-22T09:13:01.425Z,28.88
2017-07-22T09:14:01.455Z,28.89
2017-07-22T09:15:01.496Z,28.98
2017-07-22T09:16:01.528Z,29.23
2017-07-22T09:17:01.548Z,29.21
2017-07-22T09:18:01.282Z,29.09
2017-07-22T09:19:01.296Z,28.8
2017-07-22T09:20:01.654Z,28.81
2017-07-22T09:21:01.669Z,29.04
2017-07-22T09:22:16.323Z,28.74
2017-07-22T09:25:01.802Z,28.37
2017-07-22T09:26:01.864Z,28.3
2017-07-22T09:27:01.867Z,28.31
2017-07-22T09:28:01.912Z,28.4
2017-07-22T09:29:01.919Z,28.24
2017-07-22T09:30:01.969Z,28.09
2017-07-22T09:31:01.980Z,28.17
2017-07-22T09:32:02.032Z,27.99
2017-07-22T09:33:02.063Z,28.15
2017-07-22T09:34:16.686Z,28.14
2017-07-22T09:35:02.131Z,28.17
2017-07-22T09:36:02.191Z,28.14
2017-07-22T09:37:02.185Z,28.15
2017-07-22T09:38:16.812Z,27.94
2017-07-22T09:39:02.250Z,28.12
2017-07-22T09:40:02.260Z,28.27
2017-07-22T09:41:02.032Z,28.15
2017-07-22T09:42:02.333Z,28.24
2017-07-22T09:43:02.056Z,28.43
2017-07-22T09:44:02.395Z,28.46
2017-07-22T09:45:02.434Z,28.58
2017-07-22T09:46:02.445Z,28.4
2017-07-22T09:47:02.476Z,28.51
2017-07-22T09:48:02.205Z,28.66
2017-07-22T09:49:02.555Z,28.77
2017-07-22T09:50:01.961Z,28.8
2017-07-22T09:51:02.610Z,28.83
2017-07-22T09:52:02.641Z,28.9
2017-07-22T09:53:02.360Z,29.14
2017-07-22T09:54:16.987Z,29.23
2017-07-22T09:55:02.736Z,29.3
2017-07-22T09:56:02.755Z,29.53
2017-07-22T09:57:02.793Z,29.67
2017-07-22T09:58:02.809Z,30.08
2017-07-22T09:59:02.860Z,30.04
2017-07-22T10:01:02.918Z,29.97
2017-07-22T10:02:02.958Z,29.82
2017-07-22T10:03:02.965Z,29.83
2017-07-22T10:04:03.015Z,29.52
2017-07-22T10:05:03.027Z,29.64
2017-07-22T10:06:02.772Z,29.71
2017-07-22T10:08:03.124Z,29.61
2017-07-22T10:09:03.157Z,29.71
2017-07-22T10:10:17.796Z,29.71
2017-07-22T10:11:03.218Z,29.58
2017-07-22T10:12:03.236Z,29.64
2017-07-22T10:13:03.296Z,29.73
2017-07-22T10:14:03.322Z,29.85
2017-07-22T10:15:03.352Z,29.89
2017-07-22T10:16:03.370Z,30.1
2017-07-22T10:17:03.413Z,30.13
2017-07-22T10:18:03.132Z,30.15
2017-07-22T10:19:03.473Z,30.16
2017-07-22T10:20:18.119Z,30.1
2017-07-22T10:21:03.541Z,30.08
2017-07-22T10:22:03.569Z,30.15
2017-07-22T10:23:03.598Z,30.24
2017-07-22T10:24:03.626Z,30.15
2017-07-22T10:25:18.265Z,30.22
2017-07-22T10:27:03.715Z,30.46
2017-07-22T10:28:03.769Z,30.47
2017-07-22T10:29:03.809Z,30.16
2017-07-22T10:30:03.831Z,30.08
2017-07-22T10:31:03.853Z,29.98
2017-07-22T10:32:03.905Z,29.64
2017-07-22T10:33:03.897Z,29.52
2017-07-22T10:34:03.940Z,29.34
2017-07-22T10:35:03.668Z,29.28
2017-07-22T10:36:04.007Z,29.05
2017-07-22T10:37:04.041Z,29.08
2017-07-22T10:38:04.065Z,29.04
2017-07-22T10:39:04.096Z,29.05
2017-07-22T10:40:04.133Z,29.05
2017-07-22T10:41:04.167Z,29.12
2017-07-22T10:42:04.170Z,29.24
2017-07-22T10:44:04.262Z,29.48
2017-07-22T10:45:04.281Z,29.76
2017-07-22T10:46:04.305Z,30.04
2017-07-22T10:47:04.349Z,30.23
2017-07-22T10:48:04.367Z,30.32
2017-07-22T10:49:04.410Z,30.64
2017-07-22T10:50:04.119Z,30.69
2017-07-22T10:51:04.474Z,30.79
2017-07-22T10:52:04.497Z,30.98
2017-07-22T10:53:04.536Z,30.91
2017-07-22T10:54:04.567Z,31.25
2017-07-22T10:55:04.599Z,31.39
2017-07-22T10:56:04.618Z,31.46
2017-07-22T10:57:19.254Z,31.28
2017-07-22T10:58:04.386Z,31.48
2017-07-22T10:59:19.314Z,31.17
2017-07-22T11:02:04.807Z,30.89
2017-07-22T11:03:04.831Z,30.58
2017-07-22T11:05:04.924Z,30.61
2017-07-22T11:06:04.931Z,30.69
2017-07-22T11:07:04.970Z,30.61
2017-07-22T11:08:05.005Z,30.65
2017-07-22T11:09:19.635Z,30.82
2017-07-22T11:10:05.070Z,30.91
2017-07-22T11:11:05.091Z,30.77
2017-07-22T11:12:04.822Z,30.65
2017-07-22T11:13:19.763Z,30.61
2017-07-22T11:14:04.576Z,30.77
2017-07-22T11:15:05.218Z,30.79
2017-07-22T11:16:19.862Z,30.89
2017-07-22T11:17:05.284Z,31.25
2017-07-22T11:18:05.327Z,31.25
2017-07-22T11:19:05.350Z,31.38
2017-07-22T11:20:05.078Z,31.32
2017-07-22T11:21:05.418Z,31.36
2017-07-22T11:22:05.449Z,31.1
2017-07-22T11:23:05.468Z,31.13
2017-07-22T11:24:05.531Z,31.21
2017-07-22T11:25:05.550Z,31.17
2017-07-22T11:26:05.574Z,31.09
2017-07-22T11:27:05.296Z,30.94
2017-07-22T11:28:05.615Z,31.04
2017-07-22T11:30:05.687Z,31.09
2017-07-22T11:31:05.746Z,30.99
2017-07-22T11:32:05.765Z,31.04
2017-07-22T11:33:05.796Z,31.12
2017-07-22T11:34:20.433Z,31.34
2017-07-22T11:35:05.862Z,31.2
2017-07-22T11:36:05.586Z,30.84
2017-07-22T11:37:05.603Z,30.86
2017-07-22T11:38:05.956Z,30.84
2017-07-22T11:39:06.012Z,30.82
2017-07-22T11:40:06.006Z,30.77
2017-07-22T11:41:06.026Z,30.83
2017-07-22T11:42:06.090Z,30.98
2017-07-22T11:43:06.098Z,31.04
2017-07-22T11:44:06.151Z,30.92
2017-07-22T11:45:20.759Z,30.84
2017-07-22T11:46:06.196Z,30.73
2017-07-22T11:47:06.239Z,30.84
2017-07-22T11:49:06.307Z,30.99
2017-07-22T11:50:06.332Z,30.82
2017-07-22T11:51:06.369Z,30.89
2017-07-22T11:52:06.383Z,30.92
2017-07-22T11:53:06.432Z,31.19
2017-07-22T11:54:06.453Z,31.1
2017-07-22T11:56:06.520Z,30.79
2017-07-22T11:57:06.553Z,30.77
2017-07-22T11:58:06.579Z,30.99
2017-07-22T11:59:06.597Z,30.89
2017-07-22T12:00:21.254Z,30.94
2017-07-22T12:01:06.669Z,31.16
2017-07-22T12:02:06.715Z,31.2
2017-07-22T12:03:06.734Z,31.29
2017-07-22T12:05:06.802Z,31.47
2017-07-22T12:07:06.866Z,31.34
2017-07-22T12:08:06.893Z,31.16
2017-07-22T12:09:06.914Z,31.17
2017-07-22T12:10:21.562Z,30.92
2017-07-22T12:11:06.964Z,31.04
2017-07-22T12:12:07.041Z,31.07
2017-07-22T12:14:07.087Z,30.84
2017-07-22T12:15:07.118Z,30.62
2017-07-22T12:16:06.821Z,30.6
2017-07-22T12:17:06.875Z,30.53
2017-07-22T12:18:07.194Z,30.55
2017-07-22T12:19:07.249Z,30.6
2017-07-22T12:20:07.279Z,30.62
2017-07-22T12:21:07.305Z,30.82
2017-07-22T12:22:07.317Z,30.88
2017-07-22T12:23:07.355Z,30.99
2017-07-22T12:24:07.077Z,31.09
2017-07-22T12:25:07.128Z,31.28
2017-07-22T12:26:07.464Z,31.25
2017-07-22T12:27:07.481Z,31.04
2017-07-22T12:28:07.524Z,30.88
2017-07-22T12:29:07.553Z,30.84
2017-07-22T12:31:07.307Z,30.24
2017-07-22T12:33:07.373Z,29.85
2017-07-22T12:34:07.687Z,29.7
2017-07-22T12:35:07.747Z,29.71
2017-07-22T12:36:07.443Z,29.74
2017-07-22T12:37:22.403Z,29.49
2017-07-22T12:38:07.827Z,29.55
2017-07-22T12:39:22.460Z,29.57
2017-07-22T12:40:07.886Z,29.48
2017-07-22T12:41:07.931Z,29.49
2017-07-22T12:42:07.940Z,29.33
2017-07-22T12:43:07.989Z,29.43
2017-07-22T12:44:07.705Z,29.58
2017-07-22T12:45:07.436Z,29.52
2017-07-22T12:46:08.070Z,29.45
2017-07-22T12:47:08.106Z,29.43
2017-07-22T12:48:22.743Z,29.33
2017-07-22T12:49:08.173Z,29.31
2017-07-22T12:50:08.198Z,29.34
2017-07-22T12:51:08.222Z,29.21
2017-07-22T12:52:22.866Z,29.27
2017-07-22T12:53:08.274Z,29.24
2017-07-22T12:55:08.349Z,29.19
2017-07-22T12:56:08.392Z,29.23
2017-07-22T12:57:08.408Z,29.12
2017-07-22T12:58:08.125Z,29.09
2017-07-22T12:59:23.069Z,29.09
2017-07-22T13:00:07.868Z,29.05
2017-07-22T13:01:08.534Z,28.9
2017-07-22T13:02:08.563Z,28.8
2017-07-22T13:03:08.578Z,28.83
2017-07-22T13:04:23.223Z,28.7
2017-07-22T13:05:08.638Z,28.73
2017-07-22T13:06:08.687Z,28.64
2017-07-22T13:07:08.712Z,28.68
2017-07-22T13:08:08.747Z,28.67
2017-07-22T13:09:08.774Z,28.7
2017-07-22T13:10:08.792Z,28.61
2017-07-22T13:11:08.844Z,28.67
2017-07-22T13:13:08.901Z,28.59
2017-07-22T13:14:08.926Z,28.41
2017-07-22T13:15:08.648Z,28.31
2017-07-22T13:16:08.980Z,28.24
2017-07-22T13:18:09.023Z,28.27
2017-07-22T13:19:09.063Z,28.27
2017-07-22T13:20:23.684Z,28.11
2017-07-22T13:22:09.143Z,28.14
2017-07-22T13:23:09.192Z,28.17
2017-07-22T13:24:08.907Z,28.12
2017-07-22T13:25:09.252Z,28.24
2017-07-22T13:26:09.277Z,28.17
2017-07-22T13:27:09.309Z,27.72
2017-07-22T13:28:09.344Z,27.34
2017-07-22T13:29:23.965Z,26.48
2017-07-22T13:30:09.399Z,26.01
2017-07-22T13:31:09.109Z,25.64
2017-07-22T13:32:09.433Z,25.36
2017-07-22T13:33:09.488Z,24.8
2017-07-22T13:34:09.509Z,24.64
2017-07-22T13:35:24.148Z,24.24
2017-07-22T13:36:09.581Z,24.03
2017-07-22T13:37:09.590Z,23.33
2017-07-22T13:39:09.370Z,22.43
2017-07-22T13:40:09.689Z,21.86
2017-07-22T13:42:09.720Z,21.56
2017-07-22T13:43:09.778Z,21.49
2017-07-22T13:44:09.477Z,21.5
2017-07-22T13:45:09.525Z,21.59
2017-07-22T13:46:09.539Z,21.62
2017-07-22T13:47:09.576Z,21.75
2017-07-22T13:48:09.598Z,21.84
2017-07-22T13:49:09.944Z,21.83
2017-07-22T13:50:24.574Z,22.07
2017-07-22T13:51:09.982Z,22.1
2017-07-22T13:52:10.023Z,22.09
2017-07-22T13:53:10.037Z,21.75
2017-07-22T13:54:09.767Z,20.87
2017-07-22T13:55:09.790Z,20.48
2017-07-22T13:57:24.754Z,19.76
2017-07-22T13:58:10.181Z,19.81
2017-07-22T13:59:09.892Z,19.74
2017-07-22T14:00:10.235Z,19.8
2017-07-22T14:01:10.266Z,19.87
2017-07-22T14:02:10.281Z,19.99
2017-07-22T14:03:10.320Z,20.01
2017-07-22T14:04:10.340Z,19.98
2017-07-22T14:05:10.369Z,19.96